createdAt,value
2019-02-28T00:01:13.177Z,3.60
2019-02-28T00:03:40.412Z,3.60
2019-02-28T00:06:11.804Z,3.50
2019-02-28T00:08:36.883Z,3.40
2019-02-28T00:11:05.107Z,3.40
2019-02-28T00:13:33.361Z,3.60
2019-02-28T00:16:03.236Z,3.50
2019-02-28T00:18:29.721Z,3.50
2019-02-28T00:20:57.046Z,3.40
2019-02-28T00:23:24.284Z,3.30
2019-02-28T00:25:51.528Z,3.20
2019-02-28T00:28:18.741Z,3.10
2019-02-28T00:30:45.977Z,3.10
2019-02-28T00:33:13.222Z,3.10
2019-02-28T00:35:40.490Z,3.20
2019-02-28T00:38:07.725Z,3.10
2019-02-28T00:40:34.939Z,3.10
2019-02-28T00:43:02.181Z,3.20
2019-02-28T00:45:29.504Z,3.10
2019-02-28T00:47:56.742Z,3.20
2019-02-28T00:50:23.985Z,3.10
2019-02-28T00:52:51.236Z,3.00
2019-02-28T00:55:18.448Z,3.00
2019-02-28T00:57:45.673Z,3.00
2019-02-28T01:00:13.838Z,3.00
2019-02-28T01:02:41.074Z,3.00
2019-02-28T01:05:08.526Z,3.00
2019-02-28T01:07:35.768Z,3.00
2019-02-28T01:10:05.670Z,2.90
2019-02-28T01:12:32.901Z,2.90
2019-02-28T01:15:00.312Z,2.80
2019-02-28T01:17:27.780Z,2.60
2019-02-28T01:19:55.030Z,2.60
2019-02-28T01:22:22.286Z,2.50
2019-02-28T01:24:49.525Z,2.50
2019-02-28T01:27:17.358Z,2.60
2019-02-28T01:29:45.885Z,2.70
2019-02-28T01:32:15.336Z,2.60
2019-02-28T01:34:42.299Z,2.50
2019-02-28T01:37:09.554Z,2.50
2019-02-28T01:39:36.767Z,2.50
2019-02-28T01:42:03.991Z,2.40
2019-02-28T01:44:35.543Z,2.40
2019-02-28T01:47:00.345Z,2.40
2019-02-28T01:49:27.597Z,2.20
2019-02-28T01:51:54.934Z,2.00
2019-02-28T01:54:22.158Z,2.20
2019-02-28T01:56:49.409Z,2.20
2019-02-28T01:59:16.642Z,2.20
2019-02-28T02:01:43.877Z,2.30
2019-02-28T02:04:12.559Z,2.30
2019-02-28T02:06:40.305Z,2.40
2019-02-28T02:09:08.113Z,2.40
2019-02-28T02:11:36.780Z,2.30
2019-02-28T02:14:04.009Z,2.40
2019-02-28T02:16:32.268Z,2.30
2019-02-28T02:19:01.409Z,2.30
2019-02-28T02:21:31.482Z,2.20
2019-02-28T02:23:57.769Z,2.20
2019-02-28T02:26:25.009Z,2.10
2019-02-28T02:28:52.342Z,2.10
2019-02-28T02:31:19.570Z,1.90
2019-02-28T02:33:50.876Z,1.90
2019-02-28T02:36:17.590Z,1.90
2019-02-28T02:38:44.993Z,1.90
2019-02-28T02:41:12.218Z,1.90
2019-02-28T02:43:39.458Z,1.80
2019-02-28T02:46:06.664Z,1.90
2019-02-28T02:48:33.893Z,1.90
2019-02-28T02:51:01.139Z,1.90
2019-02-28T02:53:28.377Z,2.10
2019-02-28T02:55:55.607Z,2.20
2019-02-28T02:58:26.755Z,2.20
2019-02-28T03:00:52.071Z,2.30
2019-02-28T03:03:19.624Z,2.20
2019-02-28T03:05:46.841Z,2.40
2019-02-28T03:08:14.063Z,2.40
2019-02-28T03:10:41.297Z,2.50
2019-02-28T03:13:08.747Z,2.60
2019-02-28T03:15:36.165Z,2.70
2019-02-28T03:18:03.505Z,2.50
2019-02-28T03:20:30.728Z,2.60
2019-02-28T03:23:02.278Z,2.60
2019-02-28T03:25:28.330Z,2.60
2019-02-28T03:27:56.810Z,2.60
2019-02-28T03:30:31.895Z,2.70
2019-02-28T03:32:53.356Z,2.80
2019-02-28T03:35:20.788Z,2.80
2019-02-28T03:37:49.030Z,2.80
2019-02-28T03:40:16.554Z,2.80
2019-02-28T03:42:43.820Z,2.80
2019-02-28T03:45:11.344Z,2.80
2019-02-28T03:47:38.726Z,2.90
2019-02-28T03:50:06.234Z,2.90
2019-02-28T03:52:33.479Z,2.80
2019-02-28T03:55:03.202Z,2.90
2019-02-28T03:57:29.963Z,2.80
2019-02-28T03:59:57.205Z,2.80
2019-02-28T04:02:24.638Z,2.70
2019-02-28T04:04:52.060Z,2.60
2019-02-28T04:07:19.299Z,2.50
2019-02-28T04:09:46.645Z,2.50
2019-02-28T04:12:13.867Z,2.50
2019-02-28T04:14:41.386Z,2.40
2019-02-28T04:17:08.618Z,2.50
2019-02-28T04:19:35.841Z,2.50
2019-02-28T04:22:03.080Z,2.60
2019-02-28T04:24:30.465Z,2.80
2019-02-28T04:26:57.801Z,2.80
2019-02-28T04:29:30.096Z,2.80
2019-02-28T04:31:54.157Z,3.00
2019-02-28T04:34:21.378Z,3.20
2019-02-28T04:36:48.650Z,3.00
2019-02-28T04:39:16.890Z,2.90
2019-02-28T04:41:44.174Z,2.80
2019-02-28T04:44:11.386Z,2.90
2019-02-28T04:46:38.641Z,2.90
2019-02-28T04:49:05.863Z,3.00
2019-02-28T04:51:33.111Z,3.00
2019-02-28T04:54:00.363Z,3.00
2019-02-28T04:56:27.615Z,2.90
2019-02-28T04:58:56.492Z,3.00
2019-02-28T05:01:24.029Z,3.10
2019-02-28T05:03:52.689Z,3.30
2019-02-28T05:06:21.212Z,3.20
2019-02-28T05:08:49.267Z,3.10
2019-02-28T05:11:16.612Z,3.20
2019-02-28T05:13:48.520Z,3.00
2019-02-28T05:16:13.195Z,2.90
2019-02-28T05:18:40.517Z,2.70
2019-02-28T05:21:07.755Z,2.80
2019-02-28T05:23:36.047Z,2.90
2019-02-28T05:26:04.097Z,3.00
2019-02-28T05:28:31.307Z,2.90
2019-02-28T05:30:58.579Z,2.80
2019-02-28T05:33:25.812Z,2.90
2019-02-28T05:35:53.224Z,2.90
2019-02-28T05:38:21.129Z,3.00
2019-02-28T05:40:50.682Z,3.00
2019-02-28T05:43:17.913Z,3.20
2019-02-28T05:45:48.715Z,3.30
2019-02-28T05:48:14.339Z,3.40
2019-02-28T05:50:41.557Z,3.40
2019-02-28T05:53:10.027Z,3.40
2019-02-28T05:55:37.657Z,3.40
2019-02-28T05:58:04.926Z,3.40
2019-02-28T06:00:33.450Z,3.50
2019-02-28T06:03:02.640Z,3.50
2019-02-28T06:05:30.042Z,3.50
2019-02-28T06:07:57.346Z,3.50
2019-02-28T06:10:24.882Z,3.60
2019-02-28T06:12:52.309Z,3.80
2019-02-28T06:15:19.531Z,3.80
2019-02-28T06:17:46.761Z,4.00
2019-02-28T06:20:16.442Z,4.10
2019-02-28T06:22:43.198Z,4.20
2019-02-28T06:25:10.471Z,4.20
2019-02-28T06:27:41.551Z,4.20
2019-02-28T06:30:08.732Z,4.40
2019-02-28T06:32:36.589Z,4.50
2019-02-28T06:35:04.057Z,4.80
2019-02-28T06:37:31.282Z,5.00
2019-02-28T06:39:59.316Z,5.20
2019-02-28T06:42:27.508Z,5.60
2019-02-28T06:44:54.821Z,6.10
2019-02-28T06:47:22.039Z,6.40
2019-02-28T06:49:49.246Z,6.80
2019-02-28T06:52:17.708Z,7.40
2019-02-28T06:54:44.958Z,7.90
2019-02-28T06:57:12.166Z,8.30
2019-02-28T06:59:39.769Z,8.80
2019-02-28T07:02:08.832Z,9.30
2019-02-28T07:04:36.406Z,9.50
2019-02-28T07:07:03.689Z,9.80
2019-02-28T07:09:33.547Z,10.00
2019-02-28T07:12:00.208Z,10.50
2019-02-28T07:14:27.484Z,10.60
2019-02-28T07:16:54.716Z,10.90
2019-02-28T07:19:21.961Z,11.00
2019-02-28T07:21:49.198Z,11.10
2019-02-28T07:24:16.425Z,11.30
2019-02-28T07:26:43.733Z,11.20
2019-02-28T07:29:11.945Z,11.30
2019-02-28T07:31:39.490Z,11.90
2019-02-28T07:34:06.720Z,12.50
2019-02-28T07:36:33.961Z,12.80
2019-02-28T07:39:04.255Z,13.00
2019-02-28T07:41:30.328Z,13.10
2019-02-28T07:43:59.042Z,13.30
2019-02-28T07:46:26.450Z,13.10
2019-02-28T07:48:53.661Z,13.40
2019-02-28T07:51:22.713Z,13.50
2019-02-28T07:53:50.225Z,13.70
2019-02-28T07:56:17.453Z,14.00
2019-02-28T07:58:44.661Z,14.10
2019-02-28T08:01:11.905Z,14.20
2019-02-28T08:03:39.118Z,14.40
2019-02-28T08:06:06.348Z,14.70
2019-02-28T08:08:33.568Z,14.80
2019-02-28T08:11:01.258Z,14.60
2019-02-28T08:13:28.505Z,14.40
2019-02-28T08:15:56.858Z,14.50
2019-02-28T08:18:25.055Z,14.40
2019-02-28T08:20:52.398Z,14.50
2019-02-28T08:23:19.631Z,14.90
2019-02-28T08:25:46.871Z,14.90
2019-02-28T08:28:14.171Z,15.00
2019-02-28T08:30:41.395Z,15.10
2019-02-28T08:33:08.647Z,14.90
2019-02-28T08:35:35.981Z,15.00
2019-02-28T08:38:03.603Z,15.30
2019-02-28T08:40:30.820Z,15.30
2019-02-28T08:42:58.053Z,15.10
2019-02-28T08:45:26.345Z,15.20
2019-02-28T08:47:56.710Z,15.50
2019-02-28T08:50:23.682Z,15.80
2019-02-28T08:52:51.226Z,15.40
2019-02-28T08:55:27.871Z,15.20
2019-02-28T08:57:54.424Z,15.20
2019-02-28T09:00:18.254Z,14.90
2019-02-28T09:02:45.495Z,14.70
2019-02-28T09:05:13.449Z,14.80
2019-02-28T09:07:40.854Z,15.30
2019-02-28T09:10:12.628Z,15.50
2019-02-28T09:12:39.105Z,15.80
2019-02-28T09:15:07.562Z,16.10
2019-02-28T09:17:34.802Z,16.40
2019-02-28T09:20:02.154Z,16.80
2019-02-28T09:22:29.493Z,16.80
2019-02-28T09:24:56.699Z,17.10
2019-02-28T09:27:24.078Z,17.30
2019-02-28T09:29:54.496Z,17.40
2019-02-28T09:32:20.526Z,17.40
2019-02-28T09:34:47.768Z,17.40
2019-02-28T09:37:15.006Z,17.30
2019-02-28T09:39:42.209Z,17.40
2019-02-28T09:42:14.821Z,17.80
2019-02-28T09:44:38.566Z,17.80
2019-02-28T09:47:05.850Z,17.80
2019-02-28T09:49:33.102Z,18.10
2019-02-28T09:52:03.292Z,18.30
2019-02-28T09:54:29.438Z,18.50
2019-02-28T09:56:56.664Z,18.10
2019-02-28T09:59:23.882Z,17.90
2019-02-28T10:01:51.123Z,17.60
2019-02-28T10:04:18.365Z,17.50
2019-02-28T10:06:48.502Z,17.80
2019-02-28T10:09:17.046Z,17.80
2019-02-28T10:11:43.966Z,17.70
2019-02-28T10:14:12.239Z,17.70
2019-02-28T10:16:39.638Z,17.90
2019-02-28T10:19:06.882Z,17.90
2019-02-28T10:21:36.460Z,17.70
2019-02-28T10:24:03.237Z,17.70
2019-02-28T10:26:30.493Z,17.60
2019-02-28T10:28:57.706Z,17.60
2019-02-28T10:31:35.207Z,17.70
2019-02-28T10:33:54.454Z,17.70
2019-02-28T10:36:21.677Z,17.70
2019-02-28T10:38:48.886Z,17.60
2019-02-28T10:41:16.120Z,17.50
2019-02-28T10:43:43.340Z,17.50
2019-02-28T10:46:13.403Z,17.40
2019-02-28T10:48:50.489Z,17.20
2019-02-28T10:51:13.956Z,17.20
2019-02-28T10:53:39.372Z,17.60
2019-02-28T10:56:07.597Z,17.90
2019-02-28T10:58:34.932Z,17.90
2019-02-28T11:01:07.563Z,17.90
2019-02-28T11:03:32.331Z,18.00
2019-02-28T11:06:00.466Z,18.00
2019-02-28T11:08:27.786Z,18.10
2019-02-28T11:10:55.018Z,18.20
2019-02-28T11:13:22.261Z,18.10
2019-02-28T11:15:49.919Z,17.90
2019-02-28T11:18:17.488Z,17.70
2019-02-28T11:20:44.845Z,17.90
2019-02-28T11:23:15.061Z,18.10
2019-02-28T11:25:41.734Z,18.30
2019-02-28T11:28:09.191Z,18.30
2019-02-28T11:30:36.429Z,18.30
2019-02-28T11:33:04.757Z,18.50
2019-02-28T11:35:32.822Z,18.90
2019-02-28T11:38:00.149Z,19.20
2019-02-28T11:40:28.661Z,18.80
2019-02-28T11:42:59.459Z,18.30
2019-02-28T11:45:26.337Z,18.20
2019-02-28T11:47:55.449Z,18.40
2019-02-28T11:50:22.693Z,18.40
2019-02-28T11:52:49.932Z,18.60
2019-02-28T11:55:20.324Z,18.90
2019-02-28T11:57:46.378Z,18.40
2019-02-28T12:00:16.886Z,18.40
2019-02-28T12:02:52.847Z,18.60
2019-02-28T12:05:15.776Z,18.70
2019-02-28T12:07:42.435Z,18.30
2019-02-28T12:10:10.103Z,18.10
2019-02-28T12:12:37.565Z,18.20
2019-02-28T12:15:06.798Z,17.80
2019-02-28T12:17:34.090Z,17.20
2019-02-28T12:20:03.687Z,17.00
2019-02-28T12:22:30.592Z,17.00
2019-02-28T12:24:57.814Z,16.80
2019-02-28T12:27:27.413Z,16.60
2019-02-28T12:29:54.175Z,16.60
2019-02-28T12:32:21.391Z,16.80
2019-02-28T12:34:48.737Z,16.90
2019-02-28T12:37:15.990Z,17.00
2019-02-28T12:39:43.207Z,17.10
2019-02-28T12:42:10.486Z,17.10
2019-02-28T12:44:37.705Z,16.90
2019-02-28T12:47:06.489Z,16.80
2019-02-28T12:49:34.378Z,16.70
2019-02-28T12:52:02.639Z,16.60
2019-02-28T12:54:30.359Z,16.80
2019-02-28T12:56:59.010Z,16.80
2019-02-28T12:59:26.238Z,16.90
2019-02-28T13:01:53.490Z,17.00
2019-02-28T13:04:20.990Z,17.00
2019-02-28T13:06:48.335Z,17.00
2019-02-28T13:09:16.969Z,16.80
2019-02-28T13:11:44.862Z,16.80
2019-02-28T13:14:12.095Z,16.60
2019-02-28T13:16:39.327Z,16.50
2019-02-28T13:19:06.848Z,16.70
2019-02-28T13:21:34.141Z,16.80
2019-02-28T13:24:01.480Z,16.90
2019-02-28T13:26:30.578Z,16.90
2019-02-28T13:28:58.126Z,16.70
2019-02-28T13:31:26.947Z,16.70
2019-02-28T13:33:54.531Z,16.60
2019-02-28T13:36:23.397Z,16.60
2019-02-28T13:38:54.867Z,16.50
2019-02-28T13:41:22.323Z,16.60
2019-02-28T13:43:49.169Z,16.70
2019-02-28T13:46:16.414Z,16.60
2019-02-28T13:48:43.674Z,16.60
2019-02-28T13:51:11.256Z,16.70
2019-02-28T13:53:38.517Z,16.60
2019-02-28T13:56:05.762Z,16.60
2019-02-28T13:58:32.973Z,16.70
2019-02-28T14:01:00.293Z,16.60
2019-02-28T14:03:27.535Z,16.70
2019-02-28T14:05:54.784Z,16.70
2019-02-28T14:08:22.161Z,16.50
2019-02-28T14:10:50.130Z,16.50
2019-02-28T14:13:17.342Z,16.50
2019-02-28T14:15:48.144Z,16.30
2019-02-28T14:18:13.838Z,16.30
2019-02-28T14:20:41.074Z,16.30
2019-02-28T14:23:08.750Z,16.30
2019-02-28T14:25:36.350Z,16.50
2019-02-28T14:28:05.406Z,16.30
2019-02-28T14:30:32.641Z,16.20
2019-02-28T14:32:59.881Z,16.10
2019-02-28T14:35:27.676Z,16.20
2019-02-28T14:37:55.865Z,16.10
2019-02-28T14:40:24.055Z,16.10
2019-02-28T14:42:51.276Z,16.10
2019-02-28T14:45:19.154Z,16.20
2019-02-28T14:47:56.240Z,16.20
2019-02-28T14:50:18.929Z,16.10
2019-02-28T14:52:44.946Z,15.80
2019-02-28T14:55:14.306Z,15.70
2019-02-28T14:57:41.524Z,15.70
2019-02-28T15:00:14.526Z,15.70
2019-02-28T15:02:41.750Z,15.70
2019-02-28T15:05:09.649Z,15.70
2019-02-28T15:07:38.501Z,15.80
2019-02-28T15:10:08.650Z,15.70
2019-02-28T15:12:35.878Z,15.70
2019-02-28T15:15:04.607Z,15.90
2019-02-28T15:17:31.829Z,16.00
2019-02-28T15:19:59.067Z,15.70
2019-02-28T15:22:26.299Z,15.60
2019-02-28T15:24:53.510Z,15.60
2019-02-28T15:27:20.740Z,15.60
2019-02-28T15:29:47.958Z,15.70
2019-02-28T15:32:17.191Z,15.60
2019-02-28T15:34:44.410Z,15.60
2019-02-28T15:37:11.663Z,15.50
2019-02-28T15:39:38.868Z,15.50
2019-02-28T15:42:08.197Z,15.50
2019-02-28T15:44:35.419Z,15.40
2019-02-28T15:47:02.750Z,15.10
2019-02-28T15:49:29.969Z,15.20
2019-02-28T15:51:57.202Z,15.00
2019-02-28T15:54:25.296Z,14.90
2019-02-28T15:56:55.399Z,14.80
2019-02-28T15:59:23.781Z,14.60
2019-02-28T16:01:51.006Z,14.50
2019-02-28T16:04:18.255Z,14.40
2019-02-28T16:06:45.767Z,14.30
2019-02-28T16:09:14.974Z,14.10
2019-02-28T16:11:42.197Z,14.30
2019-02-28T16:14:14.512Z,14.30
2019-02-28T16:16:38.586Z,14.40
2019-02-28T16:19:05.826Z,14.40
2019-02-28T16:21:33.080Z,14.20
2019-02-28T16:24:01.990Z,14.30
2019-02-28T16:26:29.522Z,14.30
2019-02-28T16:28:56.754Z,14.20
2019-02-28T16:31:24.098Z,14.10
2019-02-28T16:33:51.937Z,14.20
2019-02-28T16:36:22.241Z,13.90
2019-02-28T16:38:48.546Z,13.80
2019-02-28T16:41:15.779Z,13.60
2019-02-28T16:43:43.103Z,13.60
2019-02-28T16:46:12.442Z,13.60
2019-02-28T16:48:39.583Z,13.70
2019-02-28T16:51:06.826Z,13.60
2019-02-28T16:53:34.034Z,13.50
2019-02-28T16:56:02.653Z,13.60
2019-02-28T16:58:31.459Z,13.70
2019-02-28T17:00:58.717Z,13.70
2019-02-28T17:03:26.054Z,13.90
2019-02-28T17:05:53.289Z,13.80
2019-02-28T17:08:20.656Z,13.70
2019-02-28T17:10:47.914Z,13.70
2019-02-28T17:13:49.995Z,13.60
2019-02-28T17:16:54.779Z,13.70
2019-02-28T17:19:22.402Z,13.80
2019-02-28T17:21:52.310Z,13.60
2019-02-28T17:24:18.734Z,13.60
2019-02-28T17:27:07.311Z,13.70
2019-02-28T17:29:57.589Z,13.80
2019-02-28T17:32:28.122Z,13.90
2019-02-28T17:34:58.998Z,13.90
2019-02-28T17:37:26.619Z,13.80
2019-02-28T17:39:54.177Z,13.80
2019-02-28T17:42:21.504Z,13.70
2019-02-28T17:45:03.178Z,13.80
2019-02-28T17:48:00.002Z,13.70
2019-02-28T17:50:50.918Z,13.50
2019-02-28T17:54:02.027Z,13.30
2019-02-28T17:56:53.494Z,13.10
2019-02-28T17:59:55.727Z,12.90
2019-02-28T18:03:01.750Z,12.90
2019-02-28T18:06:08.751Z,12.80
2019-02-28T18:09:04.835Z,12.80
2019-02-28T18:12:28.710Z,12.80
2019-02-28T18:15:13.149Z,12.80
2019-02-28T18:17:53.933Z,12.90
2019-02-28T18:20:47.498Z,13.00
2019-02-28T18:24:00.228Z,13.00
2019-02-28T18:27:14.810Z,12.90
2019-02-28T18:30:54.489Z,12.70
2019-02-28T18:33:21.781Z,12.50
2019-02-28T18:35:49.112Z,12.30
2019-02-28T18:38:16.334Z,12.30
2019-02-28T18:40:43.718Z,12.40
2019-02-28T18:43:10.934Z,12.30
2019-02-28T18:45:38.175Z,12.30
2019-02-28T18:48:05.522Z,12.30
2019-02-28T18:50:32.763Z,12.20
2019-02-28T18:53:00.030Z,12.00
2019-02-28T18:55:34.652Z,12.00
2019-02-28T18:57:56.415Z,12.00
2019-02-28T19:00:24.700Z,11.90
2019-02-28T19:02:51.934Z,11.90
2019-02-28T19:05:19.277Z,11.80
2019-02-28T19:07:46.594Z,11.60
2019-02-28T19:10:13.998Z,11.60
2019-02-28T19:12:41.234Z,11.40
2019-02-28T19:15:08.515Z,11.40
2019-02-28T19:17:35.750Z,11.20
2019-02-28T19:20:03.230Z,11.20
2019-02-28T19:22:30.478Z,11.20
2019-02-28T19:24:57.703Z,11.20
2019-02-28T19:27:24.943Z,11.20
2019-02-28T19:29:52.186Z,11.20
2019-02-28T19:32:19.545Z,11.10
2019-02-28T19:34:46.762Z,11.30
2019-02-28T19:37:14.112Z,11.20
2019-02-28T19:39:41.427Z,11.30
2019-02-28T19:42:08.672Z,11.30
2019-02-28T19:44:36.026Z,11.30
2019-02-28T19:47:03.267Z,11.40
2019-02-28T19:49:30.488Z,11.20
2019-02-28T19:51:57.750Z,11.10
2019-02-28T19:54:24.985Z,11.10
2019-02-28T19:56:52.313Z,11.20
2019-02-28T19:59:19.713Z,11.20
2019-02-28T20:01:47.074Z,11.30
2019-02-28T20:04:15.528Z,11.40
2019-02-28T20:06:42.954Z,11.40
2019-02-28T20:09:10.204Z,11.50
2019-02-28T20:11:37.420Z,11.50
2019-02-28T20:14:04.649Z,11.50
2019-02-28T20:16:32.006Z,11.50
2019-02-28T20:18:59.358Z,11.60
2019-02-28T20:21:26.710Z,11.60
2019-02-28T20:23:53.964Z,11.60
2019-02-28T20:26:21.274Z,11.60
2019-02-28T20:28:48.502Z,11.70
2019-02-28T20:31:16.045Z,11.70
2019-02-28T20:33:43.307Z,11.60
2019-02-28T20:36:10.647Z,11.50
2019-02-28T20:38:38.045Z,11.50
2019-02-28T20:41:05.443Z,11.50
2019-02-28T20:43:32.695Z,11.50
2019-02-28T20:46:00.049Z,11.40
2019-02-28T20:48:27.413Z,11.40
2019-02-28T20:50:54.656Z,11.40
2019-02-28T20:53:22.031Z,11.30
2019-02-28T20:55:49.250Z,11.30
2019-02-28T20:58:16.670Z,11.30
2019-02-28T21:00:44.021Z,11.30
2019-02-28T21:03:11.378Z,11.20
2019-02-28T21:05:38.714Z,11.20
2019-02-28T21:08:06.180Z,11.30
2019-02-28T21:10:33.493Z,11.40
2019-02-28T21:13:13.656Z,11.50
2019-02-28T21:15:40.882Z,11.50
2019-02-28T21:18:08.106Z,11.60
2019-02-28T21:20:35.342Z,11.50
2019-02-28T21:23:02.562Z,11.60
2019-02-28T21:25:29.803Z,11.60
2019-02-28T21:27:57.042Z,11.50
2019-02-28T21:30:24.304Z,11.50
2019-02-28T21:32:51.592Z,11.40
2019-02-28T21:35:19.465Z,11.40
2019-02-28T21:37:47.006Z,11.40
2019-02-28T21:40:14.826Z,11.40
2019-02-28T21:42:42.066Z,11.50
2019-02-28T21:45:10.794Z,11.60
2019-02-28T21:47:38.048Z,11.70
2019-02-28T21:50:07.207Z,11.80
2019-02-28T21:52:34.435Z,12.00
2019-02-28T21:55:01.806Z,12.00
2019-02-28T21:57:29.041Z,12.00
2019-02-28T21:59:56.274Z,12.00
2019-02-28T22:02:43.373Z,12.10
2019-02-28T22:05:11.618Z,12.10
2019-02-28T22:07:38.866Z,12.20
2019-02-28T22:10:07.353Z,12.20
2019-02-28T22:12:34.569Z,12.20
2019-02-28T22:15:01.911Z,12.10
2019-02-28T22:17:29.161Z,12.10
2019-02-28T22:19:56.382Z,12.10
2019-02-28T22:22:23.826Z,12.10
2019-02-28T22:24:51.058Z,12.00
2019-02-28T22:27:18.327Z,11.70
2019-02-28T22:29:45.557Z,11.60
2019-02-28T22:32:24.396Z,11.50
2019-02-28T22:35:02.933Z,11.40
2019-02-28T22:37:30.306Z,11.20
2019-02-28T22:39:57.926Z,10.80
2019-02-28T22:42:25.453Z,10.50
2019-02-28T22:44:52.717Z,10.10
2019-02-28T22:47:20.112Z,9.90
2019-02-28T22:49:47.479Z,9.70
2019-02-28T22:52:14.795Z,9.60
2019-02-28T22:54:42.210Z,9.60
2019-02-28T22:57:09.586Z,9.70
2019-02-28T22:59:36.834Z,9.80
2019-02-28T23:02:04.291Z,9.80
2019-02-28T23:04:31.677Z,10.00
2019-02-28T23:06:58.940Z,10.00
2019-02-28T23:09:26.216Z,10.30
2019-02-28T23:11:53.471Z,10.40
2019-02-28T23:14:20.834Z,10.40
2019-02-28T23:16:48.143Z,10.40
2019-02-28T23:19:17.194Z,10.40
2019-02-28T23:21:44.420Z,10.30
2019-02-28T23:24:11.666Z,10.40
2019-02-28T23:27:10.335Z,10.50
2019-02-28T23:29:39.510Z,10.60
2019-02-28T23:32:31.414Z,10.40
2019-02-28T23:34:58.764Z,10.40
2019-02-28T23:37:26.123Z,10.50
2019-02-28T23:39:53.574Z,10.70
2019-02-28T23:42:21.202Z,10.90
2019-02-28T23:44:48.562Z,11.00
2019-02-28T23:47:15.785Z,10.90
2019-02-28T23:49:43.038Z,11.00
2019-02-28T23:52:10.301Z,10.90
2019-02-28T23:54:37.568Z,10.90
2019-02-28T23:57:04.783Z,11.00
2019-02-28T23:59:32.033Z,10.90
